createdAt,value
2019-01-23T00:01:33.428Z,72.80
2019-01-23T00:04:02.831Z,72.80
2019-01-23T00:06:32.018Z,72.70
2019-01-23T00:09:01.198Z,73.00
2019-01-23T00:11:30.520Z,72.60
2019-01-23T00:13:59.686Z,72.60
2019-01-23T00:16:28.804Z,72.60
2019-01-23T00:18:57.971Z,73.60
2019-01-23T00:21:27.228Z,72.70
2019-01-23T00:23:56.446Z,72.70
2019-01-23T00:26:25.607Z,72.70
2019-01-23T00:28:54.750Z,72.70
2019-01-23T00:31:23.910Z,72.60
2019-01-23T00:33:52.907Z,72.80
2019-01-23T00:36:21.980Z,72.50
2019-01-23T00:38:51.139Z,72.60
2019-01-23T00:41:20.476Z,72.60
2019-01-23T00:43:49.621Z,72.70
2019-01-23T00:46:18.964Z,72.80
2019-01-23T00:48:47.996Z,72.60
2019-01-23T00:51:17.184Z,72.40
2019-01-23T00:53:46.441Z,72.30
2019-01-23T00:56:15.608Z,72.10
2019-01-23T00:58:49.190Z,72.10
2019-01-23T01:01:15.794Z,72.20
2019-01-23T01:03:45.826Z,72.00
2019-01-23T01:06:15.048Z,72.00
2019-01-23T01:08:44.206Z,72.20
2019-01-23T01:11:14.086Z,72.00
2019-01-23T01:13:43.142Z,72.10
2019-01-23T01:16:12.241Z,72.30
2019-01-23T01:18:41.435Z,72.10
2019-01-23T01:21:10.631Z,72.00
2019-01-23T01:23:39.830Z,72.00
2019-01-23T01:26:09.010Z,72.20
2019-01-23T01:28:38.208Z,72.30
2019-01-23T01:31:07.808Z,72.00
2019-01-23T01:33:37.091Z,72.10
2019-01-23T01:36:06.242Z,71.80
2019-01-23T01:38:35.358Z,71.90
2019-01-23T01:41:04.567Z,71.90
2019-01-23T01:43:33.598Z,71.50
2019-01-23T01:46:03.005Z,72.00
2019-01-23T01:48:32.179Z,71.90
2019-01-23T01:51:01.271Z,72.00
2019-01-23T01:53:30.566Z,71.90
2019-01-23T01:55:59.839Z,72.00
2019-01-23T01:58:29.026Z,72.00
2019-01-23T02:00:58.639Z,72.00
2019-01-23T02:03:27.967Z,72.00
2019-01-23T02:05:57.197Z,72.00
2019-01-23T02:08:26.407Z,72.00
2019-01-23T02:10:55.686Z,71.80
2019-01-23T02:13:24.976Z,71.80
2019-01-23T02:15:54.247Z,71.90
2019-01-23T02:18:23.364Z,72.00
2019-01-23T02:20:52.486Z,71.90
2019-01-23T02:23:23.212Z,71.80
2019-01-23T02:25:52.352Z,71.60
2019-01-23T02:28:21.810Z,71.70
2019-01-23T02:30:51.034Z,71.60
2019-01-23T02:33:20.214Z,71.90
2019-01-23T02:35:49.447Z,71.80
2019-01-23T02:38:18.494Z,71.60
2019-01-23T02:40:47.575Z,71.70
2019-01-23T02:43:16.788Z,71.80
2019-01-23T02:45:45.964Z,71.70
2019-01-23T02:48:15.110Z,71.40
2019-01-23T02:50:44.220Z,71.70
2019-01-23T02:53:13.783Z,71.70
2019-01-23T02:55:43.056Z,71.70
2019-01-23T02:58:12.458Z,71.60
2019-01-23T03:00:41.570Z,72.30
2019-01-23T03:03:10.772Z,71.50
2019-01-23T03:05:39.975Z,71.60
2019-01-23T03:08:09.199Z,71.60
2019-01-23T03:10:38.358Z,71.80
2019-01-23T03:13:07.539Z,71.70
2019-01-23T03:15:36.766Z,71.60
2019-01-23T03:18:06.033Z,71.60
2019-01-23T03:20:35.247Z,71.60
2019-01-23T03:23:04.450Z,71.60
2019-01-23T03:25:33.598Z,71.60
2019-01-23T03:28:02.718Z,71.70
2019-01-23T03:30:31.923Z,71.50
2019-01-23T03:33:01.440Z,71.60
2019-01-23T03:35:30.571Z,71.90
2019-01-23T03:38:00.351Z,71.60
2019-01-23T03:40:29.576Z,71.70
2019-01-23T03:42:58.928Z,71.90
2019-01-23T03:45:28.494Z,71.50
2019-01-23T03:47:57.651Z,71.30
2019-01-23T03:50:26.846Z,71.70
2019-01-23T03:52:56.030Z,71.80
2019-01-23T03:55:25.268Z,71.70
2019-01-23T03:57:54.587Z,71.70
2019-01-23T04:00:23.839Z,71.70
2019-01-23T04:02:53.993Z,71.50
2019-01-23T04:05:23.205Z,71.70
2019-01-23T04:07:52.402Z,71.50
2019-01-23T04:10:21.728Z,71.50
2019-01-23T04:12:50.942Z,71.60
2019-01-23T04:15:20.406Z,71.40
2019-01-23T04:17:49.842Z,71.60
2019-01-23T04:20:20.975Z,71.60
2019-01-23T04:22:50.029Z,71.40
2019-01-23T04:25:19.330Z,71.50
2019-01-23T04:27:48.369Z,71.50
2019-01-23T04:51:42.192Z,71.80
2019-01-23T04:54:15.110Z,72.00
2019-01-23T04:56:44.179Z,72.00
2019-01-23T04:59:13.441Z,72.20
2019-01-23T05:01:42.580Z,71.90
2019-01-23T05:04:11.703Z,72.00
2019-01-23T05:06:41.326Z,72.00
2019-01-23T05:09:10.555Z,71.90
2019-01-23T05:11:39.632Z,71.80
2019-01-23T05:14:08.798Z,71.60
2019-01-23T05:16:39.987Z,71.60
2019-01-23T05:19:09.048Z,71.80
2019-01-23T05:21:38.130Z,71.80
2019-01-23T05:24:07.125Z,71.80
2019-01-23T05:26:36.076Z,72.00
2019-01-23T05:29:05.533Z,71.80
2019-01-23T05:31:35.466Z,72.80
2019-01-23T05:34:05.522Z,71.80
2019-01-23T05:36:34.615Z,72.00
2019-01-23T05:39:05.267Z,72.30
2019-01-23T05:41:34.319Z,72.00
2019-01-23T05:44:03.399Z,72.20
2019-01-23T05:46:32.326Z,72.20
2019-01-23T05:49:01.189Z,72.20
2019-01-23T05:51:33.265Z,72.50
2019-01-23T05:54:02.392Z,72.20
2019-01-23T05:56:31.491Z,72.00
2019-01-23T05:59:00.520Z,72.00
2019-01-23T06:01:30.172Z,71.90
2019-01-23T06:04:02.092Z,71.90
2019-01-23T06:06:31.198Z,71.80
2019-01-23T06:09:00.215Z,71.70
2019-01-23T06:11:29.440Z,71.70
2019-01-23T06:13:58.491Z,71.70
2019-01-23T06:16:27.770Z,71.70
2019-01-23T06:18:56.868Z,71.40
2019-01-23T06:21:25.921Z,71.50
2019-01-23T06:23:55.195Z,71.20
2019-01-23T06:26:24.417Z,71.40
2019-01-23T06:28:53.520Z,71.20
2019-01-23T06:31:22.506Z,71.80
2019-01-23T06:33:52.254Z,70.90
2019-01-23T06:36:21.289Z,71.50
2019-01-23T06:38:50.376Z,70.50
2019-01-23T06:41:19.436Z,70.30
2019-01-23T06:43:48.524Z,70.30
2019-01-23T06:46:17.566Z,70.00
2019-01-23T06:48:46.625Z,69.90
2019-01-23T06:51:15.656Z,70.10
2019-01-23T06:53:44.709Z,70.40
2019-01-23T06:56:13.656Z,70.30
2019-01-23T06:58:42.654Z,70.40
2019-01-23T07:01:13.993Z,70.40
2019-01-23T07:03:48.613Z,70.40
2019-01-23T07:06:17.661Z,70.40
2019-01-23T07:08:46.714Z,70.50
2019-01-23T07:11:15.836Z,70.30
2019-01-23T07:13:45.197Z,70.50
2019-01-23T07:16:14.248Z,70.90
2019-01-23T07:18:43.336Z,70.80
2019-01-23T07:21:12.384Z,70.80
2019-01-23T07:23:41.432Z,70.70
2019-01-23T07:26:10.509Z,70.60
2019-01-23T07:28:39.649Z,70.30
2019-01-23T07:31:08.938Z,70.60
2019-01-23T07:33:37.927Z,70.20
2019-01-23T07:36:07.541Z,70.00
2019-01-23T07:38:36.517Z,70.00
2019-01-23T07:41:06.418Z,69.70
2019-01-23T07:43:35.853Z,69.60
2019-01-23T07:46:05.006Z,69.90
2019-01-23T07:48:33.998Z,70.00
2019-01-23T07:51:03.007Z,70.00
2019-01-23T07:53:32.052Z,69.80
2019-01-23T07:56:01.093Z,69.80
2019-01-23T07:58:30.110Z,69.80
2019-01-23T08:00:59.122Z,70.00
2019-01-23T08:03:28.231Z,69.80
2019-01-23T08:05:57.331Z,69.80
2019-01-23T08:08:26.409Z,70.10
2019-01-23T08:10:55.439Z,70.10
2019-01-23T08:13:24.573Z,70.20
2019-01-23T08:15:53.657Z,70.40
2019-01-23T08:18:22.829Z,70.20
2019-01-23T08:20:51.884Z,70.10
2019-01-23T08:23:20.937Z,70.20
2019-01-23T08:25:51.093Z,70.10
2019-01-23T08:28:20.111Z,70.40
2019-01-23T08:30:49.158Z,70.40
2019-01-23T08:33:19.321Z,70.20
2019-01-23T08:35:48.420Z,70.10
2019-01-23T08:38:28.692Z,69.90
2019-01-23T08:40:57.791Z,69.90
2019-01-23T08:43:26.909Z,70.10
2019-01-23T08:45:56.047Z,69.80
2019-01-23T08:48:25.070Z,70.00
2019-01-23T08:50:54.138Z,70.10
2019-01-23T08:53:23.180Z,70.00
2019-01-23T08:55:53.851Z,70.10
2019-01-23T08:58:23.076Z,70.20
2019-01-23T09:00:52.100Z,70.00
2019-01-23T09:03:21.139Z,71.40
2019-01-23T09:05:50.137Z,70.70
2019-01-23T09:08:19.149Z,70.70
2019-01-23T09:10:48.187Z,70.20
2019-01-23T09:13:17.136Z,70.50
2019-01-23T09:15:46.229Z,70.70
2019-01-23T09:18:15.260Z,70.10
2019-01-23T09:20:44.224Z,70.10
2019-01-23T09:23:13.246Z,69.80
2019-01-23T09:25:42.289Z,70.20
2019-01-23T09:28:11.620Z,70.30
2019-01-23T09:30:52.562Z,70.30
2019-01-23T09:33:52.563Z,70.40
2019-01-23T09:37:04.568Z,70.40
2019-01-23T09:40:03.190Z,69.80
2019-01-23T09:42:54.481Z,70.40
2019-01-23T09:46:01.783Z,70.50
2019-01-23T09:49:14.381Z,70.30
2019-01-23T09:52:10.593Z,70.80
2019-01-23T09:54:39.669Z,69.50
2019-01-23T09:57:09.044Z,70.80
2019-01-23T09:59:38.502Z,70.90
2019-01-23T10:02:07.903Z,71.10
2019-01-23T10:04:37.065Z,70.40
2019-01-23T10:07:06.104Z,71.10
2019-01-23T10:09:36.104Z,69.90
2019-01-23T10:12:05.346Z,70.40
2019-01-23T10:14:34.292Z,70.70
2019-01-23T10:17:03.844Z,69.60
2019-01-23T10:19:32.927Z,70.00
2019-01-23T10:22:02.005Z,70.50
2019-01-23T10:24:35.860Z,69.80
2019-01-23T10:27:02.110Z,70.30
2019-01-23T10:29:31.188Z,70.30
2019-01-23T10:32:00.153Z,69.50
2019-01-23T10:34:29.331Z,69.80
2019-01-23T10:36:58.938Z,69.70
2019-01-23T10:39:28.234Z,69.50
2019-01-23T10:41:57.279Z,69.10
2019-01-23T10:44:27.273Z,69.60
2019-01-23T10:46:56.305Z,69.20
2019-01-23T10:49:25.376Z,69.70
2019-01-23T10:51:54.444Z,69.00
2019-01-23T10:54:23.438Z,69.20
2019-01-23T10:56:52.901Z,68.90
2019-01-23T10:59:21.941Z,69.20
2019-01-23T11:01:50.961Z,69.30
2019-01-23T11:04:20.121Z,69.00
2019-01-23T11:06:49.153Z,69.00
2019-01-23T11:09:18.221Z,69.90
2019-01-23T11:11:47.265Z,69.40
2019-01-23T11:14:16.196Z,69.40
2019-01-23T11:16:45.528Z,69.70
2019-01-23T11:19:14.522Z,70.20
2019-01-23T11:21:43.507Z,70.50
2019-01-23T11:24:12.545Z,70.20
2019-01-23T11:26:41.565Z,69.80
2019-01-23T11:29:10.707Z,69.90
2019-01-23T11:31:39.773Z,70.30
2019-01-23T11:34:08.789Z,70.10
2019-01-23T11:36:37.897Z,70.20
2019-01-23T11:39:09.505Z,70.30
2019-01-23T11:41:40.249Z,70.30
2019-01-23T11:44:11.334Z,70.30
2019-01-23T11:46:40.894Z,70.00
2019-01-23T11:49:09.994Z,70.30
2019-01-23T11:51:39.107Z,69.80
2019-01-23T11:54:08.327Z,69.10
2019-01-23T11:56:37.408Z,70.10
2019-01-23T11:59:06.470Z,69.20
2019-01-23T12:01:35.911Z,69.80
2019-01-23T12:04:05.366Z,69.00
2019-01-23T12:06:34.552Z,69.80
2019-01-23T12:09:05.352Z,70.00
2019-01-23T12:11:34.405Z,69.80
2019-01-23T12:14:03.461Z,69.80
2019-01-23T12:16:32.497Z,69.70
2019-01-23T12:19:01.540Z,69.00
2019-01-23T12:21:30.793Z,69.40
2019-01-23T12:23:59.794Z,68.70
2019-01-23T12:26:28.841Z,69.20
2019-01-23T12:28:58.166Z,68.60
2019-01-23T12:31:27.285Z,66.00
2019-01-23T12:33:56.317Z,68.40
2019-01-23T12:36:25.423Z,68.40
2019-01-23T12:38:54.569Z,68.80
2019-01-23T12:41:23.621Z,68.90
2019-01-23T12:43:52.664Z,68.90
2019-01-23T12:46:21.709Z,67.90
2019-01-23T12:48:50.664Z,68.50
2019-01-23T12:51:19.746Z,67.50
2019-01-23T12:53:48.671Z,69.20
2019-01-23T12:56:17.723Z,67.70
2019-01-23T12:58:46.692Z,67.90
2019-01-23T13:01:15.812Z,68.80
2019-01-23T13:03:44.959Z,68.20
2019-01-23T13:06:13.988Z,67.50
2019-01-23T13:08:43.097Z,67.70
2019-01-23T13:11:12.450Z,68.20
2019-01-23T13:13:41.473Z,68.40
2019-01-23T13:16:10.498Z,68.10
2019-01-23T13:18:39.479Z,68.40
2019-01-23T13:21:08.694Z,67.50
2019-01-23T13:23:37.749Z,68.40
2019-01-23T13:26:13.579Z,68.40
2019-01-23T13:28:43.038Z,68.80
2019-01-23T13:31:12.095Z,68.70
2019-01-23T13:33:41.177Z,68.20
2019-01-23T13:36:10.999Z,68.70
2019-01-23T13:38:40.029Z,68.80
2019-01-23T13:41:08.993Z,68.50
2019-01-23T13:43:38.018Z,68.90
2019-01-23T13:46:07.076Z,68.10
2019-01-23T13:48:36.288Z,68.40
2019-01-23T13:51:05.396Z,68.80
2019-01-23T13:53:34.498Z,68.30
2019-01-23T13:56:03.578Z,69.20
2019-01-23T13:58:32.470Z,68.60
2019-01-23T14:01:01.707Z,68.20
2019-01-23T14:03:30.845Z,68.40
2019-01-23T14:06:00.011Z,68.10
2019-01-23T14:08:29.221Z,68.50
2019-01-23T14:10:58.317Z,69.30
2019-01-23T14:13:30.205Z,68.60
2019-01-23T14:15:59.272Z,68.40
2019-01-23T14:18:28.397Z,68.00
2019-01-23T14:20:57.494Z,68.70
2019-01-23T14:23:26.556Z,68.80
2019-01-23T14:25:55.541Z,68.50
2019-01-23T14:28:24.649Z,69.00
2019-01-23T14:30:54.996Z,69.00
2019-01-23T14:33:25.821Z,68.90
2019-01-23T14:35:54.924Z,69.00
2019-01-23T14:38:24.126Z,69.00
2019-01-23T14:40:55.393Z,69.00
2019-01-23T14:43:24.311Z,68.70
2019-01-23T14:45:53.633Z,68.40
2019-01-23T14:48:23.225Z,68.20
2019-01-23T14:50:53.305Z,68.10
2019-01-23T14:53:22.365Z,68.50
2019-01-23T14:55:51.809Z,68.40
2019-01-23T14:58:21.112Z,68.20
2019-01-23T15:00:50.195Z,68.50
2019-01-23T15:03:19.429Z,68.30
2019-01-23T15:05:48.544Z,68.40
2019-01-23T15:08:17.565Z,68.00
2019-01-23T15:10:46.629Z,68.50
2019-01-23T15:13:15.677Z,68.20
2019-01-23T15:15:45.117Z,68.40
2019-01-23T15:18:14.532Z,68.00
2019-01-23T15:20:43.638Z,68.50
2019-01-23T15:23:12.795Z,68.00
2019-01-23T15:25:41.825Z,68.00
2019-01-23T15:28:11.023Z,67.80
2019-01-23T15:30:40.104Z,67.90
2019-01-23T15:33:09.103Z,68.20
2019-01-23T15:35:38.166Z,68.60
2019-01-23T15:38:07.281Z,68.50
2019-01-23T15:40:40.628Z,68.30
2019-01-23T15:43:09.674Z,68.20
2019-01-23T15:45:38.743Z,68.60
2019-01-23T15:48:07.897Z,68.70
2019-01-23T15:50:36.946Z,68.00
2019-01-23T15:53:06.182Z,68.50
2019-01-23T15:55:35.269Z,68.60
2019-01-23T15:58:04.413Z,68.70
2019-01-23T16:00:35.033Z,67.70
2019-01-23T16:03:04.030Z,68.30
2019-01-23T16:05:33.781Z,68.40
2019-01-23T16:08:03.893Z,68.10
2019-01-23T16:10:32.922Z,68.30
2019-01-23T16:13:21.278Z,68.90
2019-01-23T16:15:50.443Z,68.60
2019-01-23T16:18:19.413Z,68.90
2019-01-23T16:20:48.773Z,69.00
2019-01-23T16:23:17.925Z,68.80
2019-01-23T16:25:46.968Z,69.00
2019-01-23T16:28:16.024Z,68.80
2019-01-23T16:30:45.061Z,68.90
2019-01-23T16:33:15.074Z,68.30
2019-01-23T16:35:44.648Z,68.90
2019-01-23T16:38:13.827Z,69.10
2019-01-23T16:40:42.969Z,69.10
2019-01-23T16:43:12.009Z,69.70
2019-01-23T16:45:42.632Z,69.20
2019-01-23T16:48:11.665Z,69.30
2019-01-23T16:50:40.693Z,69.30
2019-01-23T16:53:09.726Z,69.20
2019-01-23T16:55:38.745Z,69.30
2019-01-23T16:58:09.461Z,69.10
2019-01-23T17:00:39.088Z,69.20
2019-01-23T17:03:08.559Z,69.00
2019-01-23T17:05:37.666Z,68.90
2019-01-23T17:08:09.434Z,68.90
2019-01-23T17:10:39.368Z,69.20
2019-01-23T17:13:08.495Z,69.00
2019-01-23T17:15:37.669Z,69.10
2019-01-23T17:18:07.227Z,69.20
2019-01-23T17:20:41.561Z,69.10
2019-01-23T17:23:10.946Z,68.90
2019-01-23T17:25:41.088Z,68.80
2019-01-23T17:28:11.984Z,68.90
2019-01-23T17:30:41.609Z,70.00
2019-01-23T17:33:10.665Z,69.10
2019-01-23T17:35:40.005Z,69.40
2019-01-23T17:38:09.482Z,69.40
2019-01-23T17:40:38.688Z,69.40
2019-01-23T17:43:08.029Z,69.20
2019-01-23T17:45:38.926Z,68.60
2019-01-23T17:48:10.701Z,70.00
2019-01-23T17:50:40.450Z,69.30
2019-01-23T17:53:09.518Z,68.90
2019-01-23T17:55:39.523Z,69.30
2019-01-23T17:58:11.058Z,69.70
2019-01-23T18:00:44.403Z,69.30
2019-01-23T18:03:13.436Z,69.10
2019-01-23T18:05:42.473Z,69.10
2019-01-23T18:08:11.507Z,68.50
2019-01-23T18:10:40.538Z,68.70
2019-01-23T18:13:09.599Z,68.80
2019-01-23T18:15:38.675Z,68.30
2019-01-23T18:18:08.185Z,68.60
2019-01-23T18:20:37.453Z,68.60
2019-01-23T18:23:06.513Z,67.80
2019-01-23T18:25:35.608Z,67.50
2019-01-23T18:28:04.621Z,67.90
2019-01-23T18:31:14.100Z,68.10
2019-01-23T18:34:00.950Z,68.30
2019-01-23T18:37:11.313Z,68.40
2019-01-23T18:40:20.257Z,68.40
2019-01-23T18:43:16.358Z,67.80
2019-01-23T18:45:57.516Z,68.00
2019-01-23T18:49:32.215Z,67.80
2019-01-23T18:52:12.392Z,69.10
2019-01-23T18:54:41.448Z,68.70
2019-01-23T18:57:14.086Z,68.60
2019-01-23T18:59:43.119Z,68.90
2019-01-23T19:02:12.761Z,69.00
2019-01-23T19:04:41.909Z,69.40
2019-01-23T19:07:10.954Z,69.00
2019-01-23T19:09:40.032Z,69.40
2019-01-23T19:12:09.326Z,69.60
2019-01-23T19:14:38.364Z,69.80
2019-01-23T19:17:07.399Z,69.80
2019-01-23T19:19:36.401Z,69.70
2019-01-23T19:22:05.583Z,69.50
2019-01-23T19:24:34.601Z,69.80
2019-01-23T19:27:03.733Z,69.80
2019-01-23T19:29:32.748Z,70.20
2019-01-23T19:32:01.792Z,69.80
2019-01-23T19:34:30.745Z,69.80
2019-01-23T19:36:59.786Z,69.80
2019-01-23T19:39:28.837Z,69.50
2019-01-23T19:41:57.905Z,69.60
2019-01-23T19:44:27.331Z,69.80
2019-01-23T19:46:56.462Z,69.70
2019-01-23T19:49:27.951Z,69.70
2019-01-23T19:51:56.984Z,69.60
2019-01-23T19:54:26.129Z,69.40
2019-01-23T19:56:55.521Z,69.50
2019-01-23T19:59:24.569Z,69.50
2019-01-23T20:01:53.596Z,69.60
2019-01-23T20:04:22.633Z,69.70
2019-01-23T20:06:55.573Z,69.60
2019-01-23T20:09:26.309Z,69.50
2019-01-23T20:11:55.361Z,69.30
2019-01-23T20:14:24.317Z,69.10
2019-01-23T20:16:53.440Z,69.70
2019-01-23T20:19:22.344Z,69.60
2019-01-23T20:21:51.325Z,70.20
2019-01-23T20:24:20.336Z,70.00
2019-01-23T20:26:49.372Z,70.20
2019-01-23T20:29:18.392Z,70.20
2019-01-23T20:31:47.400Z,70.00
2019-01-23T20:34:16.369Z,70.30
2019-01-23T20:36:45.349Z,71.00
2019-01-23T20:39:14.384Z,70.60
2019-01-23T20:41:43.507Z,70.50
2019-01-23T20:44:12.516Z,70.50
2019-01-23T20:46:41.525Z,71.10
2019-01-23T20:49:10.672Z,70.00
2019-01-23T20:51:39.605Z,70.10
2019-01-23T20:54:08.762Z,70.40
2019-01-23T20:56:37.831Z,70.00
2019-01-23T20:59:06.816Z,70.00
2019-01-23T21:01:35.857Z,69.90
2019-01-23T21:04:04.857Z,70.10
2019-01-23T21:06:34.133Z,69.90
2019-01-23T21:09:03.247Z,69.80
2019-01-23T21:11:32.447Z,69.90
2019-01-23T21:14:01.486Z,69.70
2019-01-23T21:16:30.510Z,69.60
2019-01-23T21:18:59.479Z,70.00
2019-01-23T21:21:28.622Z,70.70
2019-01-23T21:23:57.736Z,69.70
2019-01-23T21:26:26.900Z,70.00
2019-01-23T21:28:56.003Z,70.50
2019-01-23T21:31:24.981Z,70.70
2019-01-23T21:33:54.001Z,71.10
2019-01-23T21:36:23.064Z,71.00
2019-01-23T21:38:52.364Z,71.20
2019-01-23T21:41:21.406Z,71.10
2019-01-23T21:43:50.372Z,71.10
2019-01-23T21:46:19.422Z,71.10
2019-01-23T21:48:48.374Z,71.20
2019-01-23T21:51:17.421Z,71.60
2019-01-23T21:53:46.518Z,71.40
2019-01-23T21:56:15.581Z,71.70
2019-01-23T21:58:44.899Z,71.70
2019-01-23T22:01:13.933Z,71.40
2019-01-23T22:03:49.084Z,71.30
2019-01-23T22:06:13.760Z,71.20
2019-01-23T22:08:42.761Z,71.00
2019-01-23T22:11:11.833Z,70.80
2019-01-23T22:13:40.853Z,70.60
2019-01-23T22:16:09.878Z,70.60
2019-01-23T22:18:38.906Z,70.70
2019-01-23T22:21:08.016Z,70.50
2019-01-23T22:23:37.101Z,70.40
2019-01-23T22:26:06.137Z,70.50
2019-01-23T22:28:35.189Z,70.60
2019-01-23T22:31:05.637Z,70.50
2019-01-23T22:33:34.629Z,70.70
2019-01-23T22:36:03.587Z,70.30
2019-01-23T22:38:32.525Z,70.10
2019-01-23T22:41:01.556Z,70.20
2019-01-23T22:43:30.448Z,70.20
2019-01-23T22:45:59.594Z,70.00
2019-01-23T22:48:28.619Z,70.00
2019-01-23T22:50:57.674Z,70.00
2019-01-23T22:53:27.126Z,70.00
2019-01-23T22:55:56.271Z,69.70
2019-01-23T22:58:25.132Z,69.60
2019-01-23T23:01:26.725Z,69.70
2019-01-23T23:03:55.742Z,69.70
2019-01-23T23:06:24.875Z,69.50
2019-01-23T23:08:53.910Z,69.70
2019-01-23T23:11:22.993Z,69.70
2019-01-23T23:13:52.129Z,69.40
2019-01-23T23:16:23.160Z,69.50
2019-01-23T23:18:52.917Z,69.50
2019-01-23T23:21:21.948Z,69.50
2019-01-23T23:23:57.604Z,69.50
2019-01-23T23:26:26.577Z,69.30
2019-01-23T23:28:59.261Z,69.20
2019-01-23T23:31:28.509Z,69.60
2019-01-23T23:33:57.604Z,69.70
2019-01-23T23:36:27.976Z,69.60
2019-01-23T23:38:57.055Z,69.50
2019-01-23T23:41:27.621Z,69.60
2019-01-23T23:43:59.449Z,69.50
2019-01-23T23:46:28.566Z,69.40
2019-01-23T23:48:59.952Z,69.40
2019-01-23T23:51:30.609Z,69.30
2019-01-23T23:54:00.520Z,69.30
2019-01-23T23:56:29.541Z,69.40
2019-01-23T23:59:02.823Z,69.00
